sensor_id;sensor_type;location;lat;lon;timestamp;temperature;humidity
5938;DHT22;2994;51.220;4.412;2023-02-22T00:00:11;9.55;77.11
5938;DHT22;2994;51.220;4.412;2023-02-22T00:03:03;9.62;76.76
5938;DHT22;2994;51.220;4.412;2023-02-22T00:05:28;9.56;77.21
5938;DHT22;2994;51.220;4.412;2023-02-22T00:07:56;9.59;76.95
5938;DHT22;2994;51.220;4.412;2023-02-22T00:10:23;9.59;76.90
5938;DHT22;2994;51.220;4.412;2023-02-22T00:12:50;9.60;76.85
5938;DHT22;2994;51.220;4.412;2023-02-22T00:15:21;9.60;76.92
5938;DHT22;2994;51.220;4.412;2023-02-22T00:17:47;9.60;76.98
5938;DHT22;2994;51.220;4.412;2023-02-22T00:20:15;9.64;76.98
5938;DHT22;2994;51.220;4.412;2023-02-22T00:22:45;9.64;76.95
5938;DHT22;2994;51.220;4.412;2023-02-22T00:25:14;9.54;77.65
5938;DHT22;2994;51.220;4.412;2023-02-22T00:27:42;9.47;78.14
5938;DHT22;2994;51.220;4.412;2023-02-22T00:30:08;9.44;78.30
5938;DHT22;2994;51.220;4.412;2023-02-22T00:32:37;9.40;78.47
5938;DHT22;2994;51.220;4.412;2023-02-22T00:35:03;9.42;78.24
5938;DHT22;2994;51.220;4.412;2023-02-22T00:37:32;9.47;78.18
5938;DHT22;2994;51.220;4.412;2023-02-22T00:40:00;9.50;78.14
5938;DHT22;2994;51.220;4.412;2023-02-22T00:42:25;9.53;78.00
5938;DHT22;2994;51.220;4.412;2023-02-22T00:44:51;9.54;77.85
5938;DHT22;2994;51.220;4.412;2023-02-22T00:47:16;9.51;77.92
5938;DHT22;2994;51.220;4.412;2023-02-22T00:49:42;9.52;77.99
5938;DHT22;2994;51.220;4.412;2023-02-22T00:52:07;9.32;78.97
5938;DHT22;2994;51.220;4.412;2023-02-22T00:54:34;9.40;78.52
5938;DHT22;2994;51.220;4.412;2023-02-22T00:56:59;9.42;78.67
5938;DHT22;2994;51.220;4.412;2023-02-22T00:59:25;9.42;78.53
5938;DHT22;2994;51.220;4.412;2023-02-22T01:01:51;9.33;78.81
5938;DHT22;2994;51.220;4.412;2023-02-22T01:04:17;9.40;78.33
5938;DHT22;2994;51.220;4.412;2023-02-22T01:06:42;9.40;78.17
5938;DHT22;2994;51.220;4.412;2023-02-22T01:09:08;9.22;79.04
5938;DHT22;2994;51.220;4.412;2023-02-22T01:11:33;9.26;78.94
5938;DHT22;2994;51.220;4.412;2023-02-22T01:13:59;9.25;79.05
5938;DHT22;2994;51.220;4.412;2023-02-22T01:16:25;9.25;79.11
5938;DHT22;2994;51.220;4.412;2023-02-22T01:18:50;9.32;78.93
5938;DHT22;2994;51.220;4.412;2023-02-22T01:21:16;9.33;78.90
5938;DHT22;2994;51.220;4.412;2023-02-22T01:23:45;9.31;79.01
5938;DHT22;2994;51.220;4.412;2023-02-22T01:26:11;9.33;79.08
5938;DHT22;2994;51.220;4.412;2023-02-22T01:28:37;9.33;79.08
5938;DHT22;2994;51.220;4.412;2023-02-22T01:31:03;9.31;79.46
5938;DHT22;2994;51.220;4.412;2023-02-22T01:33:30;9.33;79.32
5938;DHT22;2994;51.220;4.412;2023-02-22T01:35:56;9.32;79.32
5938;DHT22;2994;51.220;4.412;2023-02-22T01:38:21;9.33;79.31
5938;DHT22;2994;51.220;4.412;2023-02-22T01:40:48;9.25;79.60
5938;DHT22;2994;51.220;4.412;2023-02-22T01:43:24;9.18;79.84
5938;DHT22;2994;51.220;4.412;2023-02-22T01:48:45;9.10;80.04
5938;DHT22;2994;51.220;4.412;2023-02-22T01:51:18;9.15;79.66
5938;DHT22;2994;51.220;4.412;2023-02-22T01:53:56;9.15;79.65
5938;DHT22;2994;51.220;4.412;2023-02-22T01:56:24;9.15;79.81
5938;DHT22;2994;51.220;4.412;2023-02-22T01:59:04;9.18;79.78
5938;DHT22;2994;51.220;4.412;2023-02-22T02:01:35;9.19;79.68
5938;DHT22;2994;51.220;4.412;2023-02-22T02:04:05;9.19;79.86
5938;DHT22;2994;51.220;4.412;2023-02-22T02:06:33;9.22;79.66
5938;DHT22;2994;51.220;4.412;2023-02-22T02:09:20;9.21;79.78
5938;DHT22;2994;51.220;4.412;2023-02-22T02:11:48;9.22;79.79
5938;DHT22;2994;51.220;4.412;2023-02-22T02:14:14;9.25;79.64
5938;DHT22;2994;51.220;4.412;2023-02-22T02:16:42;9.26;79.56
5938;DHT22;2994;51.220;4.412;2023-02-22T02:38:41;8.96;79.95
5938;DHT22;2994;51.220;4.412;2023-02-22T02:41:16;9.03;79.53
5938;DHT22;2994;51.220;4.412;2023-02-22T02:43:53;9.06;79.49
5938;DHT22;2994;51.220;4.412;2023-02-22T02:46:30;9.05;79.31
5938;DHT22;2994;51.220;4.412;2023-02-22T02:48:59;9.07;79.16
5938;DHT22;2994;51.220;4.412;2023-02-22T02:51:48;9.04;79.09
5938;DHT22;2994;51.220;4.412;2023-02-22T02:54:16;9.03;78.82
5938;DHT22;2994;51.220;4.412;2023-02-22T02:56:42;9.01;78.95
5938;DHT22;2994;51.220;4.412;2023-02-22T03:04:36;9.03;79.27
5938;DHT22;2994;51.220;4.412;2023-02-22T03:09:53;8.96;79.72
5938;DHT22;2994;51.220;4.412;2023-02-22T03:15:05;8.96;79.33
5938;DHT22;2994;51.220;4.412;2023-02-22T03:23:17;8.95;79.37
5938;DHT22;2994;51.220;4.412;2023-02-22T03:25:52;9.02;79.04
5938;DHT22;2994;51.220;4.412;2023-02-22T03:28:23;9.00;79.33
5938;DHT22;2994;51.220;4.412;2023-02-22T03:30:54;9.01;79.34
5938;DHT22;2994;51.220;4.412;2023-02-22T03:34:01;9.00;79.34
5938;DHT22;2994;51.220;4.412;2023-02-22T03:36:32;8.90;79.49
5938;DHT22;2994;51.220;4.412;2023-02-22T03:39:00;8.92;79.10
5938;DHT22;2994;51.220;4.412;2023-02-22T03:41:30;8.77;79.49
5938;DHT22;2994;51.220;4.412;2023-02-22T03:44:06;8.79;79.40
5938;DHT22;2994;51.220;4.412;2023-02-22T03:46:34;8.76;79.68
5938;DHT22;2994;51.220;4.412;2023-02-22T03:51:41;8.67;79.85
5938;DHT22;2994;51.220;4.412;2023-02-22T03:54:07;8.77;79.50
5938;DHT22;2994;51.220;4.412;2023-02-22T03:56:36;8.80;79.35
5938;DHT22;2994;51.220;4.412;2023-02-22T03:59:05;8.88;79.22
5938;DHT22;2994;51.220;4.412;2023-02-22T04:01:31;8.91;79.20
5938;DHT22;2994;51.220;4.412;2023-02-22T04:03:57;8.95;78.98
5938;DHT22;2994;51.220;4.412;2023-02-22T04:06:22;8.91;79.00
5938;DHT22;2994;51.220;4.412;2023-02-22T04:08:48;8.95;78.81
5938;DHT22;2994;51.220;4.412;2023-02-22T04:11:13;8.88;79.08
5938;DHT22;2994;51.220;4.412;2023-02-22T04:13:39;8.74;79.49
5938;DHT22;2994;51.220;4.412;2023-02-22T04:16:04;8.78;79.18
5938;DHT22;2994;51.220;4.412;2023-02-22T04:18:30;8.72;79.40
5938;DHT22;2994;51.220;4.412;2023-02-22T04:20:55;8.80;78.88
5938;DHT22;2994;51.220;4.412;2023-02-22T04:23:21;8.83;78.74
5938;DHT22;2994;51.220;4.412;2023-02-22T04:25:46;8.81;78.61
5938;DHT22;2994;51.220;4.412;2023-02-22T04:28:11;8.77;78.79
5938;DHT22;2994;51.220;4.412;2023-02-22T04:30:37;8.77;78.69
5938;DHT22;2994;51.220;4.412;2023-02-22T04:33:02;8.77;78.38
5938;DHT22;2994;51.220;4.412;2023-02-22T04:35:28;8.76;78.27
5938;DHT22;2994;51.220;4.412;2023-02-22T04:37:53;8.59;78.88
5938;DHT22;2994;51.220;4.412;2023-02-22T04:40:19;8.55;78.84
5938;DHT22;2994;51.220;4.412;2023-02-22T04:42:44;8.48;79.16
5938;DHT22;2994;51.220;4.412;2023-02-22T04:45:10;8.48;79.13
5938;DHT22;2994;51.220;4.412;2023-02-22T04:47:36;8.53;78.85
5938;DHT22;2994;51.220;4.412;2023-02-22T04:50:04;8.57;78.56
5938;DHT22;2994;51.220;4.412;2023-02-22T04:52:29;8.49;78.87
5938;DHT22;2994;51.220;4.412;2023-02-22T04:54:55;8.58;78.35
5938;DHT22;2994;51.220;4.412;2023-02-22T04:57:20;8.62;78.27
5938;DHT22;2994;51.220;4.412;2023-02-22T04:59:46;8.60;78.13
5938;DHT22;2994;51.220;4.412;2023-02-22T05:02:11;8.63;78.20
5938;DHT22;2994;51.220;4.412;2023-02-22T05:04:37;8.63;77.95
5938;DHT22;2994;51.220;4.412;2023-02-22T05:07:03;8.55;78.25
5938;DHT22;2994;51.220;4.412;2023-02-22T05:09:29;8.41;78.87
5938;DHT22;2994;51.220;4.412;2023-02-22T05:11:54;8.56;78.14
5938;DHT22;2994;51.220;4.412;2023-02-22T05:14:20;8.53;78.20
5938;DHT22;2994;51.220;4.412;2023-02-22T05:16:47;8.60;77.86
5938;DHT22;2994;51.220;4.412;2023-02-22T05:19:14;8.66;77.85
5938;DHT22;2994;51.220;4.412;2023-02-22T05:21:39;8.56;78.36
5938;DHT22;2994;51.220;4.412;2023-02-22T05:24:05;8.56;78.14
5938;DHT22;2994;51.220;4.412;2023-02-22T05:26:31;8.61;77.84
5938;DHT22;2994;51.220;4.412;2023-02-22T05:28:56;8.61;77.76
5938;DHT22;2994;51.220;4.412;2023-02-22T05:31:22;8.58;77.58
5938;DHT22;2994;51.220;4.412;2023-02-22T05:33:47;8.55;77.44
5938;DHT22;2994;51.220;4.412;2023-02-22T05:36:13;8.56;77.26
5938;DHT22;2994;51.220;4.412;2023-02-22T05:38:38;8.57;77.16
5938;DHT22;2994;51.220;4.412;2023-02-22T05:41:08;8.52;77.30
5938;DHT22;2994;51.220;4.412;2023-02-22T05:43:34;8.53;77.15
5938;DHT22;2994;51.220;4.412;2023-02-22T05:45:59;8.56;77.02
5938;DHT22;2994;51.220;4.412;2023-02-22T05:48:24;8.52;77.24
5938;DHT22;2994;51.220;4.412;2023-02-22T05:50:50;8.57;77.24
5938;DHT22;2994;51.220;4.412;2023-02-22T05:53:15;8.62;77.00
5938;DHT22;2994;51.220;4.412;2023-02-22T05:55:41;8.47;77.53
5938;DHT22;2994;51.220;4.412;2023-02-22T05:58:06;8.36;77.89
5938;DHT22;2994;51.220;4.412;2023-02-22T06:00:32;8.36;77.69
5938;DHT22;2994;51.220;4.412;2023-02-22T06:03:00;8.37;77.47
5938;DHT22;2994;51.220;4.412;2023-02-22T06:05:26;8.24;78.03
5938;DHT22;2994;51.220;4.412;2023-02-22T06:07:53;8.33;77.72
5938;DHT22;2994;51.220;4.412;2023-02-22T06:10:19;8.43;77.21
5938;DHT22;2994;51.220;4.412;2023-02-22T06:12:46;8.35;77.79
5938;DHT22;2994;51.220;4.412;2023-02-22T06:15:12;8.42;77.63
5938;DHT22;2994;51.220;4.412;2023-02-22T06:17:38;8.48;77.23
5938;DHT22;2994;51.220;4.412;2023-02-22T06:20:09;8.41;77.73
5938;DHT22;2994;51.220;4.412;2023-02-22T06:22:35;8.39;77.60
5938;DHT22;2994;51.220;4.412;2023-02-22T06:25:02;8.37;77.68
5938;DHT22;2994;51.220;4.412;2023-02-22T06:27:31;8.47;77.23
5938;DHT22;2994;51.220;4.412;2023-02-22T06:29:58;8.39;77.41
5938;DHT22;2994;51.220;4.412;2023-02-22T06:32:23;8.47;77.03
5938;DHT22;2994;51.220;4.412;2023-02-22T06:34:48;8.52;76.70
5938;DHT22;2994;51.220;4.412;2023-02-22T06:37:14;8.57;76.36
5938;DHT22;2994;51.220;4.412;2023-02-22T06:39:39;8.59;76.21
5938;DHT22;2994;51.220;4.412;2023-02-22T06:42:05;8.59;75.88
5938;DHT22;2994;51.220;4.412;2023-02-22T06:44:30;8.57;75.92
5938;DHT22;2994;51.220;4.412;2023-02-22T06:46:56;8.55;76.14
5938;DHT22;2994;51.220;4.412;2023-02-22T06:49:23;8.55;76.10
5938;DHT22;2994;51.220;4.412;2023-02-22T06:51:50;8.48;76.20
5938;DHT22;2994;51.220;4.412;2023-02-22T06:54:16;8.44;76.32
5938;DHT22;2994;51.220;4.412;2023-02-22T06:56:41;8.52;75.77
5938;DHT22;2994;51.220;4.412;2023-02-22T06:59:07;8.51;75.86
5938;DHT22;2994;51.220;4.412;2023-02-22T07:01:32;8.56;75.26
5938;DHT22;2994;51.220;4.412;2023-02-22T07:03:58;8.58;75.16
5938;DHT22;2994;51.220;4.412;2023-02-22T07:06:23;8.63;75.18
5938;DHT22;2994;51.220;4.412;2023-02-22T07:08:49;8.52;75.58
5938;DHT22;2994;51.220;4.412;2023-02-22T07:11:15;8.48;76.00
5938;DHT22;2994;51.220;4.412;2023-02-22T07:13:41;8.57;75.73
5938;DHT22;2994;51.220;4.412;2023-02-22T07:16:07;8.62;75.48
5938;DHT22;2994;51.220;4.412;2023-02-22T07:18:32;8.58;75.63
5938;DHT22;2994;51.220;4.412;2023-02-22T07:20:58;8.52;75.48
5938;DHT22;2994;51.220;4.412;2023-02-22T07:23:23;8.57;75.17
5938;DHT22;2994;51.220;4.412;2023-02-22T07:25:49;8.60;74.92
5938;DHT22;2994;51.220;4.412;2023-02-22T07:28:14;8.59;74.99
5938;DHT22;2994;51.220;4.412;2023-02-22T07:30:40;8.63;74.90
5938;DHT22;2994;51.220;4.412;2023-02-22T07:33:08;8.59;75.01
5938;DHT22;2994;51.220;4.412;2023-02-22T07:35:36;8.72;74.47
5938;DHT22;2994;51.220;4.412;2023-02-22T07:38:03;8.78;74.43
5938;DHT22;2994;51.220;4.412;2023-02-22T07:40:28;8.79;74.26
5938;DHT22;2994;51.220;4.412;2023-02-22T07:42:58;8.81;73.89
5938;DHT22;2994;51.220;4.412;2023-02-22T07:45:27;8.83;73.46
5938;DHT22;2994;51.220;4.412;2023-02-22T07:47:53;8.85;73.25
5938;DHT22;2994;51.220;4.412;2023-02-22T07:50:20;8.82;73.41
5938;DHT22;2994;51.220;4.412;2023-02-22T07:52:47;8.83;73.44
5938;DHT22;2994;51.220;4.412;2023-02-22T07:55:18;8.91;73.44
5938;DHT22;2994;51.220;4.412;2023-02-22T07:57:51;8.90;73.64
5938;DHT22;2994;51.220;4.412;2023-02-22T08:00:25;8.97;73.31
5938;DHT22;2994;51.220;4.412;2023-02-22T08:02:51;9.01;73.01
5938;DHT22;2994;51.220;4.412;2023-02-22T08:05:17;9.00;73.00
5938;DHT22;2994;51.220;4.412;2023-02-22T08:07:43;9.04;72.95
5938;DHT22;2994;51.220;4.412;2023-02-22T08:10:10;9.09;72.75
5938;DHT22;2994;51.220;4.412;2023-02-22T08:12:37;9.04;72.99
5938;DHT22;2994;51.220;4.412;2023-02-22T08:15:04;9.09;72.93
5938;DHT22;2994;51.220;4.412;2023-02-22T08:17:30;9.06;73.03
5938;DHT22;2994;51.220;4.412;2023-02-22T08:19:55;9.06;72.95
5938;DHT22;2994;51.220;4.412;2023-02-22T08:22:21;8.95;72.56
5938;DHT22;2994;51.220;4.412;2023-02-22T08:24:46;8.91;72.30
5938;DHT22;2994;51.220;4.412;2023-02-22T08:27:12;9.05;72.13
5938;DHT22;2994;51.220;4.412;2023-02-22T08:29:37;8.98;72.46
5938;DHT22;2994;51.220;4.412;2023-02-22T08:32:03;9.02;72.20
5938;DHT22;2994;51.220;4.412;2023-02-22T08:34:28;9.07;72.61
5938;DHT22;2994;51.220;4.412;2023-02-22T08:36:54;9.11;72.64
5938;DHT22;2994;51.220;4.412;2023-02-22T08:39:20;9.18;72.54
5938;DHT22;2994;51.220;4.412;2023-02-22T08:41:46;9.16;72.61
5938;DHT22;2994;51.220;4.412;2023-02-22T08:44:12;9.20;72.44
5938;DHT22;2994;51.220;4.412;2023-02-22T08:46:37;9.14;72.62
5938;DHT22;2994;51.220;4.412;2023-02-22T08:49:03;9.11;72.67
5938;DHT22;2994;51.220;4.412;2023-02-22T08:51:36;9.18;72.74
5938;DHT22;2994;51.220;4.412;2023-02-22T08:54:02;9.20;72.54
5938;DHT22;2994;51.220;4.412;2023-02-22T08:56:28;9.21;72.64
5938;DHT22;2994;51.220;4.412;2023-02-22T08:58:55;9.34;72.41
5938;DHT22;2994;51.220;4.412;2023-02-22T09:01:22;9.27;72.58
5938;DHT22;2994;51.220;4.412;2023-02-22T09:03:49;9.37;72.16
5938;DHT22;2994;51.220;4.412;2023-02-22T09:06:14;9.45;71.87
5938;DHT22;2994;51.220;4.412;2023-02-22T09:08:40;9.45;71.89
5938;DHT22;2994;51.220;4.412;2023-02-22T09:11:05;9.45;71.96
5938;DHT22;2994;51.220;4.412;2023-02-22T09:13:31;9.45;71.87
5938;DHT22;2994;51.220;4.412;2023-02-22T09:15:56;9.51;71.62
5938;DHT22;2994;51.220;4.412;2023-02-22T09:18:22;9.59;71.32
5938;DHT22;2994;51.220;4.412;2023-02-22T09:20:47;9.65;71.23
5938;DHT22;2994;51.220;4.412;2023-02-22T09:23:13;9.69;71.45
5938;DHT22;2994;51.220;4.412;2023-02-22T09:25:38;9.75;71.81
5938;DHT22;2994;51.220;4.412;2023-02-22T09:28:05;9.76;72.20
5938;DHT22;2994;51.220;4.412;2023-02-22T09:30:35;9.79;72.50
5938;DHT22;2994;51.220;4.412;2023-02-22T09:33:04;9.82;72.51
5938;DHT22;2994;51.220;4.412;2023-02-22T09:35:30;9.77;73.06
5938;DHT22;2994;51.220;4.412;2023-02-22T09:38:00;9.92;72.80
5938;DHT22;2994;51.220;4.412;2023-02-22T09:40:29;9.97;73.12
5938;DHT22;2994;51.220;4.412;2023-02-22T09:43:17;9.98;73.09
5938;DHT22;2994;51.220;4.412;2023-02-22T09:46:46;10.09;72.89
5938;DHT22;2994;51.220;4.412;2023-02-22T09:51:38;10.21;73.00
5938;DHT22;2994;51.220;4.412;2023-02-22T09:54:10;10.28;72.84
5938;DHT22;2994;51.220;4.412;2023-02-22T09:56:39;10.39;72.71
5938;DHT22;2994;51.220;4.412;2023-02-22T09:59:07;10.44;72.88
5938;DHT22;2994;51.220;4.412;2023-02-22T10:01:43;10.48;72.92
5938;DHT22;2994;51.220;4.412;2023-02-22T10:04:39;10.49;72.87
5938;DHT22;2994;51.220;4.412;2023-02-22T10:07:38;10.63;72.78
5938;DHT22;2994;51.220;4.412;2023-02-22T10:10:05;10.69;72.67
5938;DHT22;2994;51.220;4.412;2023-02-22T10:20:38;10.94;72.09
5938;DHT22;2994;51.220;4.412;2023-02-22T10:26:23;10.99;72.06
5938;DHT22;2994;51.220;4.412;2023-02-22T10:31:42;10.97;72.38
5938;DHT22;2994;51.220;4.412;2023-02-22T10:34:28;11.05;72.22
5938;DHT22;2994;51.220;4.412;2023-02-22T10:37:07;10.94;72.35
5938;DHT22;2994;51.220;4.412;2023-02-22T10:39:40;11.03;72.28
5938;DHT22;2994;51.220;4.412;2023-02-22T10:42:07;11.13;72.31
5938;DHT22;2994;51.220;4.412;2023-02-22T10:44:37;11.27;72.00
5938;DHT22;2994;51.220;4.412;2023-02-22T10:47:09;11.33;71.94
5938;DHT22;2994;51.220;4.412;2023-02-22T10:49:40;11.36;72.07
5938;DHT22;2994;51.220;4.412;2023-02-22T10:52:18;11.39;71.88
5938;DHT22;2994;51.220;4.412;2023-02-22T10:54:49;11.43;71.71
5938;DHT22;2994;51.220;4.412;2023-02-22T10:57:21;11.48;71.61
5938;DHT22;2994;51.220;4.412;2023-02-22T10:59:47;11.48;71.71
5938;DHT22;2994;51.220;4.412;2023-02-22T11:02:19;11.54;71.58
5938;DHT22;2994;51.220;4.412;2023-02-22T11:04:51;11.54;71.65
5938;DHT22;2994;51.220;4.412;2023-02-22T11:09:53;11.60;71.42
5938;DHT22;2994;51.220;4.412;2023-02-22T11:12:37;11.60;71.59
5938;DHT22;2994;51.220;4.412;2023-02-22T11:15:26;11.67;71.57
5938;DHT22;2994;51.220;4.412;2023-02-22T11:17:55;11.73;71.38
5938;DHT22;2994;51.220;4.412;2023-02-22T11:20:28;11.83;71.14
5938;DHT22;2994;51.220;4.412;2023-02-22T11:22:59;11.89;71.12
5938;DHT22;2994;51.220;4.412;2023-02-22T11:25:29;11.91;71.00
5938;DHT22;2994;51.220;4.412;2023-02-22T11:28:07;11.92;71.22
5938;DHT22;2994;51.220;4.412;2023-02-22T11:30:35;12.01;71.09
5938;DHT22;2994;51.220;4.412;2023-02-22T11:35:58;12.02;70.95
5938;DHT22;2994;51.220;4.412;2023-02-22T11:38:30;12.08;70.58
5938;DHT22;2994;51.220;4.412;2023-02-22T11:41:15;12.08;70.91
5938;DHT22;2994;51.220;4.412;2023-02-22T11:43:43;12.21;70.49
5938;DHT22;2994;51.220;4.412;2023-02-22T11:46:16;12.26;70.57
5938;DHT22;2994;51.220;4.412;2023-02-22T11:49:04;12.30;70.67
5938;DHT22;2994;51.220;4.412;2023-02-22T11:52:00;12.20;70.52
5938;DHT22;2994;51.220;4.412;2023-02-22T11:54:35;12.30;70.51
5938;DHT22;2994;51.220;4.412;2023-02-22T12:05:05;12.23;70.87
5938;DHT22;2994;51.220;4.412;2023-02-22T12:08:15;12.26;70.98
5938;DHT22;2994;51.220;4.412;2023-02-22T12:13:27;12.41;70.82
5938;DHT22;2994;51.220;4.412;2023-02-22T12:21:58;12.64;70.48
5938;DHT22;2994;51.220;4.412;2023-02-22T12:24:31;12.64;70.57
5938;DHT22;2994;51.220;4.412;2023-02-22T12:27:02;12.74;70.36
5938;DHT22;2994;51.220;4.412;2023-02-22T12:29:40;12.76;70.31
5938;DHT22;2994;51.220;4.412;2023-02-22T12:35:41;12.73;70.39
5938;DHT22;2994;51.220;4.412;2023-02-22T12:38:42;12.78;70.41
5938;DHT22;2994;51.220;4.412;2023-02-22T12:44:08;12.89;69.94
5938;DHT22;2994;51.220;4.412;2023-02-22T12:46:48;12.86;69.87
5938;DHT22;2994;51.220;4.412;2023-02-22T12:49:47;12.91;69.95
5938;DHT22;2994;51.220;4.412;2023-02-22T12:52:41;12.93;70.04
5938;DHT22;2994;51.220;4.412;2023-02-22T12:58:05;12.96;69.93
5938;DHT22;2994;51.220;4.412;2023-02-22T13:00:42;12.92;70.33
5938;DHT22;2994;51.220;4.412;2023-02-22T13:03:26;12.93;70.26
5938;DHT22;2994;51.220;4.412;2023-02-22T13:22:43;13.25;69.58
5938;DHT22;2994;51.220;4.412;2023-02-22T13:25:17;13.19;69.70
5938;DHT22;2994;51.220;4.412;2023-02-22T13:27:53;13.14;69.98
5938;DHT22;2994;51.220;4.412;2023-02-22T13:30:43;13.12;69.97
5938;DHT22;2994;51.220;4.412;2023-02-22T13:35:58;13.16;69.86
5938;DHT22;2994;51.220;4.412;2023-02-22T13:39:00;13.02;70.32
5938;DHT22;2994;51.220;4.412;2023-02-22T13:41:45;13.01;70.55
5938;DHT22;2994;51.220;4.412;2023-02-22T13:49:57;13.10;70.64
5938;DHT22;2994;51.220;4.412;2023-02-22T13:52:29;13.06;70.93
5938;DHT22;2994;51.220;4.412;2023-02-22T13:55:02;13.07;70.91
5938;DHT22;2994;51.220;4.412;2023-02-22T13:57:40;13.05;71.02
5938;DHT22;2994;51.220;4.412;2023-02-22T14:03:05;12.88;71.75
5938;DHT22;2994;51.220;4.412;2023-02-22T14:08:04;12.91;71.61
5938;DHT22;2994;51.220;4.412;2023-02-22T14:13:08;13.08;71.34
5938;DHT22;2994;51.220;4.412;2023-02-22T14:15:34;12.96;71.61
5938;DHT22;2994;51.220;4.412;2023-02-22T14:18:04;12.96;71.83
5938;DHT22;2994;51.220;4.412;2023-02-22T14:23:36;12.94;71.78
5938;DHT22;2994;51.220;4.412;2023-02-22T14:26:34;12.72;72.72
5938;DHT22;2994;51.220;4.412;2023-02-22T14:34:15;12.60;73.47
5938;DHT22;2994;51.220;4.412;2023-02-22T14:37:03;12.79;72.58
5938;DHT22;2994;51.220;4.412;2023-02-22T14:39:47;12.61;73.45
5938;DHT22;2994;51.220;4.412;2023-02-22T14:42:24;12.67;73.22
5938;DHT22;2994;51.220;4.412;2023-02-22T14:48:10;12.61;73.19
5938;DHT22;2994;51.220;4.412;2023-02-22T14:56:00;12.42;74.15
5938;DHT22;2994;51.220;4.412;2023-02-22T14:58:43;12.31;74.53
5938;DHT22;2994;51.220;4.412;2023-02-22T15:01:36;12.13;75.25
5938;DHT22;2994;51.220;4.412;2023-02-22T15:06:46;12.34;74.00
5938;DHT22;2994;51.220;4.412;2023-02-22T15:14:24;11.94;75.33
5938;DHT22;2994;51.220;4.412;2023-02-22T15:16:59;11.96;75.35
5938;DHT22;2994;51.220;4.412;2023-02-22T15:19:30;11.75;76.32
5938;DHT22;2994;51.220;4.412;2023-02-22T15:21:57;11.77;76.32
5938;DHT22;2994;51.220;4.412;2023-02-22T15:24:29;11.88;75.92
5938;DHT22;2994;51.220;4.412;2023-02-22T15:27:05;11.92;76.08
5938;DHT22;2994;51.220;4.412;2023-02-22T15:29:35;11.94;76.05
5938;DHT22;2994;51.220;4.412;2023-02-22T15:32:01;11.94;75.96
5938;DHT22;2994;51.220;4.412;2023-02-22T15:34:30;11.94;76.20
5938;DHT22;2994;51.220;4.412;2023-02-22T15:37:18;11.94;76.31
5938;DHT22;2994;51.220;4.412;2023-02-22T15:39:43;12.01;76.28
5938;DHT22;2994;51.220;4.412;2023-02-22T15:42:11;12.08;76.16
5938;DHT22;2994;51.220;4.412;2023-02-22T15:44:44;12.14;75.91
5938;DHT22;2994;51.220;4.412;2023-02-22T15:47:31;12.15;76.00
5938;DHT22;2994;51.220;4.412;2023-02-22T15:55:21;12.20;75.83
5938;DHT22;2994;51.220;4.412;2023-02-22T15:57:48;12.27;75.72
5938;DHT22;2994;51.220;4.412;2023-02-22T16:00:26;12.21;75.90
5938;DHT22;2994;51.220;4.412;2023-02-22T16:03:04;12.27;75.81
5938;DHT22;2994;51.220;4.412;2023-02-22T16:08:02;12.19;76.10
5938;DHT22;2994;51.220;4.412;2023-02-22T16:10:35;12.18;76.28
5938;DHT22;2994;51.220;4.412;2023-02-22T16:13:22;12.22;76.15
5938;DHT22;2994;51.220;4.412;2023-02-22T16:15:57;12.26;76.10
5938;DHT22;2994;51.220;4.412;2023-02-22T16:21:09;12.18;76.59
5938;DHT22;2994;51.220;4.412;2023-02-22T16:26:24;12.23;76.53
5938;DHT22;2994;51.220;4.412;2023-02-22T16:29:01;12.25;76.70
5938;DHT22;2994;51.220;4.412;2023-02-22T16:31:31;12.21;77.02
5938;DHT22;2994;51.220;4.412;2023-02-22T16:34:02;12.20;77.21
5938;DHT22;2994;51.220;4.412;2023-02-22T16:36:43;12.19;77.37
5938;DHT22;2994;51.220;4.412;2023-02-22T16:41:53;12.16;77.67
5938;DHT22;2994;51.220;4.412;2023-02-22T16:44:19;12.17;77.63
5938;DHT22;2994;51.220;4.412;2023-02-22T16:46:45;12.16;77.75
5938;DHT22;2994;51.220;4.412;2023-02-22T16:49:11;12.15;77.98
5938;DHT22;2994;51.220;4.412;2023-02-22T16:51:44;12.21;77.80
5938;DHT22;2994;51.220;4.412;2023-02-22T16:54:13;12.21;77.79
5938;DHT22;2994;51.220;4.412;2023-02-22T16:56:39;12.19;77.97
5938;DHT22;2994;51.220;4.412;2023-02-22T16:59:12;12.23;77.84
5938;DHT22;2994;51.220;4.412;2023-02-22T17:01:39;12.17;77.99
5938;DHT22;2994;51.220;4.412;2023-02-22T17:04:15;12.17;78.07
5938;DHT22;2994;51.220;4.412;2023-02-22T17:06:42;12.22;77.92
5938;DHT22;2994;51.220;4.412;2023-02-22T17:09:08;12.25;77.72
5938;DHT22;2994;51.220;4.412;2023-02-22T17:11:35;12.22;77.92
5938;DHT22;2994;51.220;4.412;2023-02-22T17:14:00;12.18;78.18
5938;DHT22;2994;51.220;4.412;2023-02-22T17:16:26;12.25;77.92
5938;DHT22;2994;51.220;4.412;2023-02-22T17:18:51;12.28;77.79
5938;DHT22;2994;51.220;4.412;2023-02-22T17:21:17;12.25;77.92
5938;DHT22;2994;51.220;4.412;2023-02-22T17:23:42;12.27;77.98
5938;DHT22;2994;51.220;4.412;2023-02-22T17:26:11;12.31;77.80
5938;DHT22;2994;51.220;4.412;2023-02-22T17:28:38;12.28;77.97
5938;DHT22;2994;51.220;4.412;2023-02-22T17:31:04;12.30;77.85
5938;DHT22;2994;51.220;4.412;2023-02-22T17:33:32;12.26;78.08
5938;DHT22;2994;51.220;4.412;2023-02-22T17:35:59;12.31;77.85
5938;DHT22;2994;51.220;4.412;2023-02-22T17:38:27;12.31;77.80
5938;DHT22;2994;51.220;4.412;2023-02-22T17:40:55;12.31;77.79
5938;DHT22;2994;51.220;4.412;2023-02-22T17:43:21;12.30;77.79
5938;DHT22;2994;51.220;4.412;2023-02-22T17:45:46;12.32;77.75
5938;DHT22;2994;51.220;4.412;2023-02-22T17:48:14;12.32;77.60
5938;DHT22;2994;51.220;4.412;2023-02-22T17:50:41;12.29;77.73
5938;DHT22;2994;51.220;4.412;2023-02-22T17:53:07;12.32;77.68
5938;DHT22;2994;51.220;4.412;2023-02-22T17:55:36;12.35;77.47
5938;DHT22;2994;51.220;4.412;2023-02-22T17:58:03;12.29;77.84
5938;DHT22;2994;51.220;4.412;2023-02-22T18:00:32;12.34;77.69
5938;DHT22;2994;51.220;4.412;2023-02-22T18:03:07;12.27;77.93
5938;DHT22;2994;51.220;4.412;2023-02-22T18:05:39;12.25;77.85
5938;DHT22;2994;51.220;4.412;2023-02-22T18:08:04;12.30;77.60
5938;DHT22;2994;51.220;4.412;2023-02-22T18:10:30;12.25;77.88
5938;DHT22;2994;51.220;4.412;2023-02-22T18:12:55;12.31;77.50
5938;DHT22;2994;51.220;4.412;2023-02-22T18:15:22;12.30;77.55
5938;DHT22;2994;51.220;4.412;2023-02-22T18:17:47;12.29;77.62
5938;DHT22;2994;51.220;4.412;2023-02-22T18:20:15;12.31;77.52
5938;DHT22;2994;51.220;4.412;2023-02-22T18:22:44;12.35;77.43
5938;DHT22;2994;51.220;4.412;2023-02-22T18:25:11;12.36;77.41
5938;DHT22;2994;51.220;4.412;2023-02-22T18:27:41;12.34;77.67
5938;DHT22;2994;51.220;4.412;2023-02-22T18:30:10;12.29;77.78
5938;DHT22;2994;51.220;4.412;2023-02-22T18:32:37;12.27;77.99
5938;DHT22;2994;51.220;4.412;2023-02-22T18:35:03;12.31;77.71
5938;DHT22;2994;51.220;4.412;2023-02-22T18:37:29;12.33;77.76
5938;DHT22;2994;51.220;4.412;2023-02-22T18:39:58;12.28;77.94
5938;DHT22;2994;51.220;4.412;2023-02-22T18:42:27;12.32;77.66
5938;DHT22;2994;51.220;4.412;2023-02-22T18:44:56;12.35;77.52
5938;DHT22;2994;51.220;4.412;2023-02-22T18:47:25;12.35;77.42
5938;DHT22;2994;51.220;4.412;2023-02-22T18:49:50;12.35;77.47
5938;DHT22;2994;51.220;4.412;2023-02-22T18:52:16;12.40;77.26
5938;DHT22;2994;51.220;4.412;2023-02-22T18:54:42;12.42;77.15
5938;DHT22;2994;51.220;4.412;2023-02-22T18:57:09;12.34;77.42
5938;DHT22;2994;51.220;4.412;2023-02-22T18:59:37;12.35;77.35
5938;DHT22;2994;51.220;4.412;2023-02-22T19:02:08;12.30;77.57
5938;DHT22;2994;51.220;4.412;2023-02-22T19:04:35;12.33;77.29
5938;DHT22;2994;51.220;4.412;2023-02-22T19:07:00;12.34;77.27
5938;DHT22;2994;51.220;4.412;2023-02-22T19:09:26;12.33;77.34